Time;durP1;ratioP1;P1;durP2;ratioP2;P2;SDS_P1;SDS_P2;PMS_P1;PMS_P2;Temp;Humidity;BMP_temperature;BMP_pressure;BME280_temperature;BME280_humidity;BME280_pressure;Samples;Min_cycle;Max_cycle;Signal;HPM_P1;HPM_P2
2023/03/18 00:01:03;;;;;;;14.57;9.95;;;9.90;99.90;;;;;;5074950;28;20043;-59
2023/03/18 00:03:30;;;;;;;16.10;10.27;;;10.00;99.90;;;;;;5074210;28;20088;-58
2023/03/18 00:06:07;;;;;;;15.43;10.48;;;10.00;99.90;;;;;;5073936;28;20040;-59
2023/03/18 00:08:34;;;;;;;14.73;9.88;;;10.00;99.90;;;;;;5075645;28;20043;-59
2023/03/18 00:10:59;;;;;;;13.90;10.20;;;9.70;99.90;;;;;;5072553;28;20147;-59
2023/03/18 00:13:26;;;;;;;14.80;10.25;;;9.90;99.90;;;;;;5073541;28;20381;-59
2023/03/18 00:15:52;;;;;;;16.30;10.15;;;10.20;99.90;;;;;;5073746;28;20591;-59
2023/03/18 00:18:19;;;;;;;18.27;10.13;;;9.90;99.90;;;;;;5075269;28;20097;-59
2023/03/18 00:20:44;;;;;;;15.00;9.70;;;9.90;99.90;;;;;;5074342;28;20040;-58
2023/03/18 00:23:11;;;;;;;13.40;9.77;;;9.90;99.90;;;;;;5074061;28;20036;-59
2023/03/18 00:25:38;;;;;;;15.38;10.02;;;10.00;99.90;;;;;;5073759;28;20044;-59
2023/03/18 00:28:05;;;;;;;15.10;9.90;;;9.70;99.90;;;;;;5074145;28;20040;-59
2023/03/18 00:30:33;;;;;;;19.48;10.23;;;9.90;99.90;;;;;;5075235;28;20804;-57
2023/03/18 00:32:59;;;;;;;18.75;9.93;;;9.80;99.90;;;;;;5073085;28;20043;-59
2023/03/18 00:35:26;;;;;;;18.65;10.23;;;10.10;99.90;;;;;;5073842;28;20350;-58
2023/03/18 00:37:54;;;;;;;13.60;9.70;;;9.90;99.90;;;;;;5073332;28;20096;-59
2023/03/18 00:40:26;;;;;;;14.38;10.07;;;10.10;99.90;;;;;;5073157;28;21802;-59
2023/03/18 00:42:56;;;;;;;16.00;10.13;;;10.00;99.90;;;;;;5073315;28;20520;-58
2023/03/18 00:45:23;;;;;;;15.68;10.00;;;10.00;99.90;;;;;;5073977;28;20042;-59
2023/03/18 00:47:49;;;;;;;15.50;10.90;;;10.20;99.90;;;;;;5074855;28;20142;-59
2023/03/18 00:50:15;;;;;;;14.15;10.05;;;10.10;99.90;;;;;;5074401;28;20044;-59
2023/03/18 00:52:42;;;;;;;17.10;11.25;;;10.20;99.90;;;;;;5074191;28;20065;-59
2023/03/18 00:55:09;;;;;;;17.25;10.98;;;10.20;99.90;;;;;;5074432;28;20052;-59
2023/03/18 00:57:35;;;;;;;16.52;11.95;;;10.30;99.90;;;;;;5074645;28;20056;-59
2023/03/18 01:00:03;;;;;;;19.30;12.75;;;10.10;99.90;;;;;;5074420;28;20044;-58
2023/03/18 01:02:29;;;;;;;21.55;12.30;;;10.00;99.90;;;;;;5074615;28;20056;-59
2023/03/18 01:04:55;;;;;;;20.48;12.82;;;10.40;99.90;;;;;;5073608;28;20125;-59
2023/03/18 01:07:22;;;;;;;17.70;12.43;;;10.10;99.90;;;;;;5074414;28;20063;-58
2023/03/18 01:09:48;;;;;;;21.80;13.60;;;10.00;99.90;;;;;;5074579;28;20120;-58
2023/03/18 01:12:15;;;;;;;21.50;14.63;;;10.00;99.90;;;;;;5072767;28;20055;-58
2023/03/18 01:14:42;;;;;;;19.13;14.55;;;10.00;99.90;;;;;;5073513;28;20138;-58
2023/03/18 01:17:08;;;;;;;24.58;15.77;;;10.00;99.90;;;;;;5073283;28;20063;-58
2023/03/18 01:19:34;;;;;;;19.92;14.90;;;10.00;99.90;;;;;;5073987;28;20036;-59
2023/03/18 01:22:01;;;;;;;21.50;14.80;;;10.00;99.90;;;;;;5073465;28;20050;-59
2023/03/18 01:24:27;;;;;;;27.48;15.77;;;10.00;99.90;;;;;;5073082;28;20036;-59
2023/03/18 01:26:53;;;;;;;24.05;17.65;;;10.10;99.90;;;;;;5072855;28;20844;-58
2023/03/18 01:29:21;;;;;;;22.13;16.77;;;9.80;99.90;;;;;;5073896;28;20040;-58
2023/03/18 01:31:47;;;;;;;24.13;18.13;;;9.80;99.90;;;;;;5073058;28;20059;-58
2023/03/18 01:34:15;;;;;;;29.70;19.13;;;9.60;99.90;;;;;;5071991;28;20066;-59
2023/03/18 01:36:41;;;;;;;22.27;17.35;;;9.50;99.90;;;;;;5072027;28;20837;-58
2023/03/18 01:39:07;;;;;;;24.17;18.92;;;9.50;99.90;;;;;;5072267;28;20111;-59
2023/03/18 01:41:35;;;;;;;24.92;18.65;;;9.50;99.90;;;;;;5072774;28;20042;-59
2023/03/18 01:44:03;;;;;;;26.95;20.02;;;9.60;99.90;;;;;;5074547;28;20115;-59
2023/03/18 01:46:35;;;;;;;28.13;20.17;;;9.50;99.90;;;;;;5072499;28;20036;-58
2023/03/18 01:49:11;;;;;;;27.23;20.33;;;9.30;99.90;;;;;;5072154;28;20047;-59
2023/03/18 01:51:40;;;;;;;27.70;20.25;;;9.40;99.90;;;;;;5072068;28;20044;-58
2023/03/18 01:54:07;;;;;;;28.90;22.23;;;9.40;99.90;;;;;;5072291;28;20029;-59
2023/03/18 01:56:36;;;;;;;28.67;22.58;;;9.30;99.90;;;;;;5073341;28;20101;-58
2023/03/18 01:59:02;;;;;;;28.08;22.38;;;9.40;99.90;;;;;;5071781;28;20036;-59
2023/03/18 02:01:46;;;;;;;31.15;22.58;;;8.50;99.90;;;;;;5071842;28;20293;-58
2023/03/18 02:04:13;;;;;;;32.25;22.80;;;9.30;99.90;;;;;;5071430;28;20167;-59
2023/03/18 02:06:39;;;;;;;30.45;22.35;;;9.20;99.90;;;;;;5074179;28;20514;-59
2023/03/18 02:09:05;;;;;;;29.65;22.60;;;9.20;99.90;;;;;;5071360;28;20108;-59
2023/03/18 02:11:35;;;;;;;31.77;23.83;;;9.20;99.90;;;;;;5071918;28;20040;-59
2023/03/18 02:14:02;;;;;;;31.90;22.63;;;9.20;99.90;;;;;;5068300;28;21863;-59
2023/03/18 02:16:44;;;;;;;31.63;23.73;;;9.10;99.90;;;;;;5072500;28;20483;-59
2023/03/18 02:19:47;;;;;;;32.08;23.75;;;9.10;99.90;;;;;;5072179;28;20040;-59
2023/03/18 02:22:33;;;;;;;33.83;24.95;;;9.10;99.90;;;;;;5072783;28;20519;-59
2023/03/18 02:25:18;;;;;;;33.00;26.60;;;9.10;99.90;;;;;;5073044;28;20118;-59
2023/03/18 02:27:47;;;;;;;34.55;25.13;;;9.00;99.90;;;;;;5073207;28;20530;-59
2023/03/18 02:30:25;;;;;;;36.38;26.95;;;9.00;99.90;;;;;;5070142;28;20472;-58
2023/03/18 02:32:53;;;;;;;34.95;27.05;;;9.10;99.90;;;;;;5071312;28;20116;-59
2023/03/18 02:35:19;;;;;;;35.78;28.15;;;9.40;99.90;;;;;;5072110;28;20355;-59
2023/03/18 02:37:45;;;;;;;36.63;26.80;;;8.80;99.90;;;;;;5072100;28;20126;-59
2023/03/18 02:40:36;;;;;;;37.53;27.23;;;9.00;99.90;;;;;;5070914;28;20420;-59
2023/03/18 02:43:26;;;;;;;35.30;28.95;;;8.80;99.90;;;;;;5070489;28;20068;-58
2023/03/18 02:46:14;;;;;;;38.15;27.55;;;8.70;99.90;;;;;;5072140;28;20221;-59
2023/03/18 02:48:44;;;;;;;37.38;29.60;;;8.90;99.90;;;;;;5070962;28;20050;-59
2023/03/18 02:51:11;;;;;;;35.30;28.75;;;8.90;99.90;;;;;;5086438;28;20435;-59
2023/03/18 02:53:37;;;;;;;43.20;29.80;;;8.60;99.90;;;;;;5071929;28;20047;-58
2023/03/18 02:56:04;;;;;;;33.88;28.45;;;8.50;99.90;;;;;;5071181;28;20085;-59
2023/03/18 02:58:31;;;;;;;38.42;30.95;;;8.70;99.90;;;;;;5070593;28;20054;-59
2023/03/18 03:00:56;;;;;;;40.13;31.05;;;8.40;99.90;;;;;;5071335;28;20078;-59
2023/03/18 03:03:23;;;;;;;40.80;32.85;;;8.50;99.90;;;;;;5070609;28;20102;-59
2023/03/18 03:05:49;;;;;;;42.13;31.77;;;8.20;99.90;;;;;;5076217;28;20687;-59
2023/03/18 03:08:15;;;;;;;42.63;32.35;;;8.40;99.90;;;;;;5075184;28;20066;-59
2023/03/18 03:10:41;;;;;;;39.70;32.10;;;8.20;99.90;;;;;;5075033;28;20069;-59
2023/03/18 03:13:08;;;;;;;38.30;32.35;;;8.30;99.90;;;;;;5074443;28;20609;-59
2023/03/18 03:15:35;;;;;;;40.97;31.27;;;8.30;99.90;;;;;;5074608;28;20052;-59
2023/03/18 03:18:02;;;;;;;41.15;33.08;;;8.20;99.90;;;;;;5076530;28;20122;-59
2023/03/18 03:20:32;;;;;;;41.40;32.03;;;8.10;99.90;;;;;;5074904;28;20127;-59
2023/03/18 03:22:58;;;;;;;40.28;32.78;;;8.10;99.90;;;;;;5075792;28;20032;-59
2023/03/18 03:25:26;;;;;;;46.33;32.97;;;8.00;99.90;;;;;;5075988;28;20047;-58
2023/03/18 03:27:52;;;;;;;44.35;33.13;;;8.10;99.90;;;;;;5075140;28;20077;-59
2023/03/18 03:30:19;;;;;;;47.47;33.45;;;8.60;99.90;;;;;;5076638;28;20716;-58
2023/03/18 03:32:46;;;;;;;45.70;35.53;;;8.00;99.90;;;;;;5075568;28;20552;-59
2023/03/18 03:35:15;;;;;;;46.35;34.30;;;8.60;99.90;;;;;;5074764;28;21221;-58
2023/03/18 03:37:42;;;;;;;39.83;33.65;;;10.10;99.90;;;;;;5075815;28;20131;-58
2023/03/18 03:40:16;;;;;;;43.22;33.13;;;7.90;99.90;;;;;;5075422;28;20546;-58
2023/03/18 03:42:43;;;;;;;43.50;33.30;;;8.10;99.90;;;;;;5075501;28;20040;-58
2023/03/18 03:45:10;;;;;;;44.78;34.25;;;8.00;99.90;;;;;;5075498;28;21179;-58
2023/03/18 03:47:36;;;;;;;43.92;34.35;;;7.90;99.90;;;;;;5074265;28;20040;-59
2023/03/18 03:50:02;;;;;;;40.85;34.20;;;8.20;99.90;;;;;;5074602;28;20048;-58
2023/03/18 03:52:28;;;;;;;45.70;33.90;;;8.10;99.90;;;;;;5072031;28;20141;-58
2023/03/18 03:54:55;;;;;;;47.42;35.30;;;8.10;99.90;;;;;;5074567;28;20040;-59
2023/03/18 03:57:23;;;;;;;44.53;34.47;;;8.20;99.90;;;;;;5075449;28;20044;-58
2023/03/18 03:59:49;;;;;;;46.72;35.25;;;8.30;99.90;;;;;;5074255;28;20071;-58
2023/03/18 04:02:16;;;;;;;49.55;35.47;;;8.20;99.90;;;;;;5074144;28;20043;-60
2023/03/18 04:04:42;;;;;;;43.80;34.20;;;8.30;99.90;;;;;;5073891;28;20052;-59
2023/03/18 04:07:08;;;;;;;47.90;34.88;;;8.30;99.90;;;;;;5074767;28;20578;-58
2023/03/18 04:09:35;;;;;;;47.97;33.65;;;8.30;99.90;;;;;;5074464;28;20036;-59
2023/03/18 04:12:01;;;;;;;42.80;34.17;;;9.90;99.90;;;;;;5073667;28;20472;-58
2023/03/18 04:14:27;;;;;;;45.42;29.80;;;8.40;99.90;;;;;;5073865;28;20122;-58
2023/03/18 04:16:56;;;;;;;45.65;34.45;;;7.70;99.90;;;;;;5073207;28;20139;-58
2023/03/18 04:19:24;;;;;;;48.33;34.30;;;8.80;99.90;;;;;;5074780;28;20373;-58
2023/03/18 04:21:50;;;;;;;44.47;33.45;;;8.30;99.90;;;;;;5073205;28;20086;-58
2023/03/18 04:24:16;;;;;;;47.67;32.13;;;8.40;99.90;;;;;;5074327;28;20040;-59
2023/03/18 04:26:42;;;;;;;41.45;32.28;;;8.40;99.90;;;;;;5074215;28;20043;-58
2023/03/18 04:29:08;;;;;;;44.40;33.53;;;8.40;99.90;;;;;;5074875;28;20466;-59
2023/03/18 04:31:34;;;;;;;47.88;33.15;;;8.40;99.90;;;;;;5073820;28;20040;-59
2023/03/18 04:33:59;;;;;;;42.47;31.83;;;8.50;99.90;;;;;;5073151;28;20164;-58
2023/03/18 04:36:27;;;;;;;46.08;32.20;;;8.50;99.90;;;;;;5074376;28;20066;-59
2023/03/18 04:38:53;;;;;;;41.40;31.30;;;8.50;99.90;;;;;;5075237;28;20083;-58
2023/03/18 04:41:20;;;;;;;45.88;31.35;;;8.50;99.90;;;;;;5072339;28;20055;-59
2023/03/18 04:43:45;;;;;;;45.80;31.45;;;8.80;99.90;;;;;;5073638;28;20048;-58
2023/03/18 04:46:11;;;;;;;42.42;30.65;;;8.30;99.90;;;;;;5075372;28;20126;-59
2023/03/18 04:48:38;;;;;;;43.88;31.80;;;8.40;99.90;;;;;;5074808;28;20405;-58
2023/03/18 04:51:07;;;;;;;48.17;32.78;;;9.60;99.90;;;;;;5075427;28;20093;-59
2023/03/18 04:53:33;;;;;;;44.72;31.40;;;8.50;99.90;;;;;;5074819;28;20111;-59
2023/03/18 04:55:59;;;;;;;43.97;30.75;;;8.40;99.90;;;;;;5074762;28;20036;-60
2023/03/18 04:58:25;;;;;;;43.97;30.75;;;8.60;99.90;;;;;;5073978;28;20510;-59
2023/03/18 05:00:52;;;;;;;48.22;33.17;;;8.40;99.90;;;;;;5074483;28;20051;-59
2023/03/18 05:03:18;;;;;;;46.80;31.83;;;8.50;99.90;;;;;;5073488;28;20131;-59
2023/03/18 05:05:44;;;;;;;49.15;31.17;;;8.50;99.90;;;;;;5073136;28;20198;-60
2023/03/18 05:08:09;;;;;;;45.33;30.30;;;8.70;99.90;;;;;;5072840;28;20500;-59
2023/03/18 05:10:35;;;;;;;51.90;31.83;;;8.70;99.90;;;;;;5073373;28;20155;-60
2023/03/18 05:13:02;;;;;;;54.58;32.47;;;8.80;99.90;;;;;;5073399;28;20086;-60
2023/03/18 05:15:28;;;;;;;55.25;32.97;;;8.70;99.90;;;;;;5073120;28;20512;-60
2023/03/18 05:17:54;;;;;;;55.65;33.22;;;8.40;99.90;;;;;;5073434;28;20052;-59
2023/03/18 05:20:21;;;;;;;49.10;30.85;;;8.60;99.90;;;;;;5074075;28;20150;-60
2023/03/18 05:22:47;;;;;;;51.72;32.58;;;8.70;99.90;;;;;;5074106;28;20691;-60
2023/03/18 05:25:12;;;;;;;54.03;32.58;;;8.70;99.90;;;;;;5073365;28;20051;-59
2023/03/18 05:27:38;;;;;;;55.00;31.52;;;8.50;99.90;;;;;;5073186;28;20046;-59
2023/03/18 05:30:05;;;;;;;64.72;34.45;;;8.80;99.90;;;;;;5073149;28;20036;-60
2023/03/18 05:32:31;;;;;;;63.55;34.17;;;8.80;99.90;;;;;;5074251;28;20144;-59
2023/03/18 05:34:57;;;;;;;64.05;34.25;;;8.70;99.90;;;;;;5072204;28;20703;-60
2023/03/18 05:37:23;;;;;;;71.43;33.88;;;8.70;99.90;;;;;;5073466;28;20032;-60
2023/03/18 05:39:49;;;;;;;72.70;34.45;;;8.70;99.90;;;;;;5072790;28;20040;-60
2023/03/18 05:42:15;;;;;;;74.43;34.13;;;8.70;99.90;;;;;;5073625;28;20872;-60
2023/03/18 05:44:41;;;;;;;80.22;35.30;;;8.50;99.90;;;;;;5073277;28;20040;-60
2023/03/18 05:47:10;;;;;;;74.38;34.97;;;9.40;99.90;;;;;;5073580;28;20747;-60
2023/03/18 05:49:36;;;;;;;69.65;33.72;;;8.70;99.90;;;;;;5072214;28;20051;-59
2023/03/18 05:52:02;;;;;;;70.80;34.25;;;8.60;99.90;;;;;;5073328;28;20036;-60
2023/03/18 05:54:28;;;;;;;73.63;35.72;;;8.60;99.90;;;;;;5073186;28;20032;-59
2023/03/18 05:56:54;;;;;;;70.70;34.83;;;9.00;99.90;;;;;;5073303;28;20387;-59
2023/03/18 05:59:22;;;;;;;72.20;34.95;;;8.50;99.90;;;;;;5071408;28;20036;-60
2023/03/18 06:01:49;;;;;;;70.13;36.75;;;8.60;99.90;;;;;;5072618;28;20058;-60
2023/03/18 06:04:16;;;;;;;60.65;33.47;;;8.50;99.90;;;;;;5071513;28;20067;-60
2023/03/18 06:06:42;;;;;;;65.57;35.15;;;8.40;99.90;;;;;;5072943;28;20329;-59
2023/03/18 06:09:10;;;;;;;75.40;39.05;;;8.60;99.90;;;;;;5071928;28;20552;-60
2023/03/18 06:11:38;;;;;;;78.45;40.08;;;8.50;99.90;;;;;;5072126;28;20412;-59
2023/03/18 06:14:06;;;;;;;83.93;40.40;;;8.60;99.90;;;;;;5071823;28;20090;-59
2023/03/18 06:16:32;;;;;;;74.07;38.58;;;8.70;99.90;;;;;;5073280;28;20055;-58
2023/03/18 06:18:58;;;;;;;65.55;38.95;;;8.90;99.90;;;;;;5070439;28;20055;-64
2023/03/18 06:21:25;;;;;;;69.40;37.85;;;8.50;99.90;;;;;;5071435;28;20577;-60
2023/03/18 06:23:52;;;;;;;68.07;39.35;;;8.70;99.90;;;;;;5070008;28;20085;-61
2023/03/18 06:26:17;;;;;;;64.13;38.33;;;9.10;99.90;;;;;;5072212;28;20040;-61
2023/03/18 06:28:44;;;;;;;59.60;36.28;;;8.70;99.90;;;;;;5072179;28;20670;-61
2023/03/18 06:31:11;;;;;;;68.10;39.38;;;8.80;99.90;;;;;;5073462;28;20051;-61
2023/03/18 06:33:37;;;;;;;66.03;38.15;;;8.70;99.90;;;;;;5071848;28;20081;-60
2023/03/18 06:36:04;;;;;;;63.10;41.10;;;8.70;99.90;;;;;;5072224;28;20093;-60
2023/03/18 06:38:31;;;;;;;67.40;39.58;;;8.70;99.90;;;;;;5071582;28;20718;-61
2023/03/18 06:40:57;;;;;;;59.03;38.15;;;8.70;99.90;;;;;;5073306;28;20094;-61
2023/03/18 06:43:23;;;;;;;66.68;40.25;;;8.70;99.90;;;;;;5074320;28;20040;-59
2023/03/18 06:45:49;;;;;;;62.30;38.88;;;8.70;99.90;;;;;;5072333;28;20101;-61
2023/03/18 06:48:16;;;;;;;61.40;38.50;;;8.80;99.90;;;;;;5071703;28;20061;-61
2023/03/18 06:50:42;;;;;;;57.67;37.70;;;9.10;99.90;;;;;;5072557;28;21187;-61
2023/03/18 06:53:09;;;;;;;48.08;33.83;;;8.80;99.90;;;;;;5072615;28;20054;-61
2023/03/18 06:55:36;;;;;;;59.53;37.67;;;8.50;99.90;;;;;;5071921;28;20075;-61
2023/03/18 06:58:04;;;;;;;53.15;35.58;;;8.80;99.90;;;;;;5072545;28;20036;-61
2023/03/18 07:00:30;;;;;;;57.90;38.38;;;9.00;99.90;;;;;;5072790;28;20131;-61
2023/03/18 07:02:56;;;;;;;48.60;34.78;;;9.30;99.90;;;;;;5071042;28;20051;-61
2023/03/18 07:05:22;;;;;;;51.08;33.55;;;9.50;99.90;;;;;;5072509;28;20036;-60
2023/03/18 07:07:49;;;;;;;51.33;35.20;;;9.70;99.90;;;;;;5070855;28;20153;-60
2023/03/18 07:10:21;;;;;;;49.45;35.47;;;9.60;99.90;;;;;;5071788;28;20373;-60
2023/03/18 07:12:47;;;;;;;53.83;35.13;;;9.50;99.90;;;;;;5071771;28;20044;-60
2023/03/18 07:15:14;;;;;;;46.80;33.20;;;9.80;99.90;;;;;;5072290;28;20104;-60
2023/03/18 07:17:39;;;;;;;48.00;33.47;;;9.90;99.90;;;;;;5072015;28;20064;-58
2023/03/18 07:20:06;;;;;;;53.28;36.03;;;9.90;99.90;;;;;;5072275;28;20048;-60
2023/03/18 07:22:31;;;;;;;46.03;32.92;;;10.20;99.90;;;;;;5072395;28;20040;-60
2023/03/18 07:24:57;;;;;;;44.33;30.42;;;10.60;99.90;;;;;;5071484;28;20047;-60
2023/03/18 07:27:23;;;;;;;44.45;29.50;;;10.90;99.90;;;;;;5072534;28;20044;-60
2023/03/18 07:29:49;;;;;;;41.42;30.42;;;10.80;99.90;;;;;;5072664;28;20101;-60
2023/03/18 07:32:15;;;;;;;41.13;29.42;;;9.40;99.90;;;;;;5072476;28;20079;-61
2023/03/18 07:34:41;;;;;;;39.40;30.02;;;10.80;99.90;;;;;;5071575;28;20470;-60
2023/03/18 07:37:07;;;;;;;41.42;30.33;;;10.60;99.90;;;;;;5072163;28;20040;-60
2023/03/18 07:39:33;;;;;;;37.90;30.98;;;10.70;99.90;;;;;;5072293;28;20204;-60
2023/03/18 07:41:59;;;;;;;44.33;32.05;;;10.40;99.90;;;;;;5073713;28;20063;-60
2023/03/18 07:44:25;;;;;;;41.85;26.88;;;10.60;99.90;;;;;;5072707;28;20044;-60
2023/03/18 07:46:51;;;;;;;38.78;28.35;;;10.30;99.90;;;;;;5073610;28;20454;-60
2023/03/18 07:49:16;;;;;;;43.78;30.85;;;10.50;99.90;;;;;;5072173;28;20042;-61
2023/03/18 07:51:42;;;;;;;41.30;30.77;;;10.40;99.90;;;;;;5074915;28;20032;-60
2023/03/18 07:54:08;;;;;;;38.20;27.55;;;10.30;99.90;;;;;;5075733;28;20044;-61
2023/03/18 07:56:34;;;;;;;42.65;30.23;;;10.50;99.90;;;;;;5075781;28;20055;-61
2023/03/18 07:59:00;;;;;;;41.97;28.70;;;10.40;99.90;;;;;;5076672;28;20056;-62
2023/03/18 08:01:26;;;;;;;38.05;29.08;;;10.60;99.90;;;;;;5075698;28;20036;-60
2023/03/18 08:03:52;;;;;;;37.92;29.13;;;10.60;99.90;;;;;;5074382;28;20055;-60
2023/03/18 08:06:18;;;;;;;40.97;28.70;;;10.70;99.90;;;;;;5075243;28;20431;-60
2023/03/18 08:08:44;;;;;;;38.05;29.10;;;10.70;99.90;;;;;;5074925;28;20469;-60
2023/03/18 08:11:10;;;;;;;35.88;26.05;;;10.80;99.90;;;;;;5076083;28;20036;-61
2023/03/18 08:13:37;;;;;;;36.85;28.35;;;10.80;99.90;;;;;;5074259;28;20128;-60
2023/03/18 08:16:04;;;;;;;34.53;27.00;;;10.70;99.90;;;;;;5074881;28;20128;-61
2023/03/18 08:18:30;;;;;;;37.92;28.20;;;10.80;99.90;;;;;;5074526;28;20831;-61
2023/03/18 08:20:55;;;;;;;36.25;27.63;;;10.90;99.90;;;;;;5075416;28;20044;-60
2023/03/18 08:23:22;;;;;;;32.00;26.08;;;10.80;99.90;;;;;;5075485;28;20493;-60
2023/03/18 08:25:49;;;;;;;32.25;25.30;;;10.60;99.90;;;;;;5074969;28;20052;-60
2023/03/18 08:28:16;;;;;;;37.03;26.80;;;10.70;99.90;;;;;;5074710;28;20044;-61
2023/03/18 08:30:42;;;;;;;31.67;26.33;;;10.80;99.90;;;;;;5074552;28;20047;-59
2023/03/18 08:33:08;;;;;;;35.30;27.33;;;10.60;99.90;;;;;;5073987;28;20043;-60
2023/03/18 08:35:34;;;;;;;36.65;26.15;;;10.70;99.90;;;;;;5074609;28;20824;-60
2023/03/18 08:38:00;;;;;;;34.33;26.13;;;10.70;99.90;;;;;;5074599;28;20035;-60
2023/03/18 08:40:26;;;;;;;35.58;26.73;;;10.70;99.90;;;;;;5073375;28;20032;-59
2023/03/18 08:42:52;;;;;;;34.92;25.83;;;10.70;99.90;;;;;;5074503;28;20036;-60
2023/03/18 08:45:18;;;;;;;33.55;26.95;;;10.50;99.90;;;;;;5074577;28;20671;-60
2023/03/18 08:47:44;;;;;;;36.55;28.30;;;10.80;99.90;;;;;;5075975;28;20154;-60
2023/03/18 08:50:10;;;;;;;35.58;26.42;;;10.70;99.90;;;;;;5074849;28;20346;-58
2023/03/18 08:52:40;;;;;;;31.83;26.60;;;10.50;99.90;;;;;;5074779;28;20050;-60
2023/03/18 08:55:07;;;;;;;38.22;28.67;;;10.80;99.90;;;;;;5074729;28;20044;-60
2023/03/18 08:57:33;;;;;;;33.72;27.33;;;10.70;99.90;;;;;;5076003;28;20055;-60
2023/03/18 08:59:59;;;;;;;31.38;25.08;;;10.60;99.90;;;;;;5075385;28;20111;-60
2023/03/18 09:02:26;;;;;;;34.55;28.02;;;10.60;99.90;;;;;;5074258;28;20432;-60
2023/03/18 09:04:53;;;;;;;35.22;27.30;;;10.70;99.90;;;;;;5072920;28;20036;-60
2023/03/18 09:07:20;;;;;;;35.05;26.00;;;10.60;99.90;;;;;;5074790;28;20159;-60
2023/03/18 09:09:45;;;;;;;33.78;26.98;;;10.90;99.90;;;;;;5075039;28;20044;-59
2023/03/18 09:12:12;;;;;;;37.75;27.17;;;11.00;99.90;;;;;;5074040;28;20104;-60
2023/03/18 09:14:39;;;;;;;34.75;27.52;;;11.00;99.90;;;;;;5074123;28;20040;-60
2023/03/18 09:17:05;;;;;;;32.40;26.75;;;10.90;99.90;;;;;;5074363;28;20052;-60
2023/03/18 09:19:31;;;;;;;32.17;26.55;;;11.20;99.90;;;;;;5073965;28;20044;-60
2023/03/18 09:21:58;;;;;;;35.92;26.15;;;11.20;99.90;;;;;;5074511;28;20035;-60
2023/03/18 09:24:23;;;;;;;30.27;25.30;;;11.30;99.90;;;;;;5073566;28;20090;-60
2023/03/18 09:26:49;;;;;;;33.15;26.95;;;11.40;99.90;;;;;;5073142;28;20127;-61
2023/03/18 09:29:15;;;;;;;34.50;27.92;;;11.50;99.90;;;;;;5072098;28;20526;-60
2023/03/18 09:31:41;;;;;;;31.73;25.05;;;11.50;99.90;;;;;;5074023;28;20039;-60
2023/03/18 09:34:06;;;;;;;32.00;25.42;;;11.80;99.90;;;;;;5072862;28;20105;-60
2023/03/18 09:36:32;;;;;;;28.85;25.75;;;12.00;99.90;;;;;;5072918;28;20123;-60
2023/03/18 09:38:59;;;;;;;30.17;24.63;;;12.30;99.90;;;;;;5073477;28;20048;-60
2023/03/18 09:41:47;;;;;;;28.35;23.88;;;12.50;99.90;;;;;;5073588;28;20166;-60
2023/03/18 09:44:18;;;;;;;33.72;24.33;;;12.70;99.90;;;;;;5073068;28;20100;-60
2023/03/18 09:47:17;;;;;;;30.80;21.88;;;12.90;99.90;;;;;;5074429;28;20047;-60
2023/03/18 09:49:56;;;;;;;27.13;23.52;;;13.10;99.90;;;;;;5072068;28;20115;-59
2023/03/18 09:52:30;;;;;;;26.90;23.70;;;13.30;99.90;;;;;;5071930;28;20423;-60
2023/03/18 09:55:04;;;;;;;30.23;23.17;;;14.00;99.90;;;;;;5072800;28;20036;-59
2023/03/18 09:57:34;;;;;;;29.85;23.25;;;15.20;99.90;;;;;;5072972;28;20373;-60
2023/03/18 10:00:16;;;;;;;28.40;22.67;;;15.60;99.90;;;;;;5073450;28;20044;-60
2023/03/18 10:03:17;;;;;;;24.42;20.17;;;15.60;99.90;;;;;;5073154;28;20040;-59
2023/03/18 10:06:03;;;;;;;26.73;21.83;;;15.50;99.90;;;;;;5072401;28;20408;-59
2023/03/18 10:08:49;;;;;;;28.35;21.42;;;15.30;99.90;;;;;;5072131;28;20044;-59
2023/03/18 10:11:31;;;;;;;26.42;22.60;;;15.20;99.90;;;;;;5072577;28;20040;-59
2023/03/18 10:14:20;;;;;;;29.33;21.17;;;15.30;99.90;;;;;;5072526;28;20036;-59
2023/03/18 10:17:13;;;;;;;26.67;20.52;;;15.30;99.90;;;;;;5070844;28;20055;-59
2023/03/18 10:19:50;;;;;;;27.35;21.08;;;15.30;99.90;;;;;;5074500;28;20528;-60
2023/03/18 10:22:46;;;;;;;28.48;21.45;;;15.00;99.90;;;;;;5073478;28;20119;-59
2023/03/18 10:25:44;;;;;;;27.13;21.73;;;14.50;99.90;;;;;;5073098;28;20043;-59
2023/03/18 10:28:25;;;;;;;29.77;23.80;;;13.80;99.90;;;;;;5072829;28;20040;-60
2023/03/18 10:30:51;;;;;;;29.45;22.63;;;14.30;99.90;;;;;;5073700;28;20040;-60
2023/03/18 10:33:45;;;;;;;30.10;22.10;;;14.10;99.90;;;;;;5072722;28;20182;-59
2023/03/18 10:36:19;;;;;;;26.45;20.48;;;14.20;99.90;;;;;;5073296;28;20496;-59
2023/03/18 10:38:50;;;;;;;28.48;21.95;;;14.30;99.90;;;;;;5074232;28;20048;-58
2023/03/18 10:41:37;;;;;;;22.88;19.55;;;14.20;99.90;;;;;;5074147;28;20443;-59
2023/03/18 10:44:17;;;;;;;24.08;19.02;;;16.60;99.90;;;;;;5073373;28;20048;-60
2023/03/18 10:46:45;;;;;;;21.63;18.98;;;14.80;99.90;;;;;;5073785;28;20043;-59
2023/03/18 10:49:23;;;;;;;22.40;17.30;;;14.40;99.90;;;;;;5071888;28;20127;-59
2023/03/18 10:51:55;;;;;;;20.25;17.33;;;14.80;99.90;;;;;;5073086;28;20044;-59
2023/03/18 10:54:31;;;;;;;22.47;17.87;;;15.20;99.90;;;;;;5072074;28;20638;-59
2023/03/18 10:56:57;;;;;;;20.40;17.33;;;15.40;99.90;;;;;;5073259;28;20348;-59
2023/03/18 10:59:24;;;;;;;23.70;17.95;;;15.90;99.90;;;;;;5070211;28;20512;-60
2023/03/18 11:02:00;;;;;;;20.50;15.68;;;16.10;99.90;;;;;;5072863;28;20108;-59
2023/03/18 11:04:27;;;;;;;17.30;14.55;;;16.20;99.90;;;;;;5072194;28;20459;-59
2023/03/18 11:07:02;;;;;;;20.13;15.32;;;16.10;99.90;;;;;;5071791;28;20747;-60
2023/03/18 11:09:35;;;;;;;22.38;14.73;;;16.10;99.90;;;;;;5073011;28;20404;-59
2023/03/18 11:12:06;;;;;;;17.58;14.10;;;16.10;99.90;;;;;;5073046;28;20044;-59
2023/03/18 11:14:32;;;;;;;21.95;15.60;;;16.20;99.90;;;;;;5072721;28;20527;-59
2023/03/18 11:17:01;;;;;;;21.85;14.75;;;15.90;99.90;;;;;;5073711;28;20070;-58
2023/03/18 11:19:47;;;;;;;17.33;12.27;;;15.50;99.90;;;;;;5072015;28;20048;-59
2023/03/18 11:22:22;;;;;;;15.32;12.13;;;15.20;99.90;;;;;;5087049;28;20513;-59
2023/03/18 11:25:05;;;;;;;17.13;11.77;;;15.00;99.90;;;;;;5073660;28;20346;-59
2023/03/18 11:27:40;;;;;;;18.27;12.32;;;14.70;99.90;;;;;;5076691;28;20065;-58
2023/03/18 11:30:18;;;;;;;14.98;11.45;;;14.70;99.90;;;;;;5077017;28;20041;-59
2023/03/18 11:33:01;;;;;;;16.88;11.60;;;14.70;99.90;;;;;;5075393;28;20289;-59
2023/03/18 11:35:39;;;;;;;18.17;12.32;;;15.80;99.90;;;;;;5077201;28;20059;-59
2023/03/18 11:38:06;;;;;;;16.33;12.50;;;14.40;99.90;;;;;;5075337;28;20374;-59
2023/03/18 11:40:32;;;;;;;16.02;13.00;;;14.50;99.90;;;;;;5076607;28;20036;-59
2023/03/18 11:43:01;;;;;;;14.25;10.10;;;14.70;99.90;;;;;;5075184;28;20043;-59
2023/03/18 11:45:49;;;;;;;14.80;11.20;;;15.60;99.90;;;;;;5076033;28;20036;-59
2023/03/18 11:48:22;;;;;;;18.30;12.32;;;15.90;99.90;;;;;;5075224;28;20253;-59
2023/03/18 11:51:18;;;;;;;17.95;12.65;;;16.30;99.90;;;;;;5075265;28;20067;-59
2023/03/18 11:54:17;;;;;;;16.05;12.15;;;16.60;99.90;;;;;;5075672;28;20784;-59
2023/03/18 11:56:56;;;;;;;11.82;9.48;;;17.00;99.90;;;;;;5076217;28;20043;-60
2023/03/18 11:59:49;;;;;;;15.07;11.13;;;17.10;99.90;;;;;;5076100;28;20524;-58
2023/03/18 12:02:45;;;;;;;14.50;10.57;;;17.20;99.90;;;;;;5076355;28;20075;-59
2023/03/18 12:05:45;;;;;;;15.85;10.45;;;17.70;99.90;;;;;;5075803;28;20097;-59
2023/03/18 12:08:42;;;;;;;11.55;8.68;;;17.50;99.90;;;;;;5074994;28;20051;-59
2023/03/18 12:11:15;;;;;;;13.10;8.63;;;17.10;99.90;;;;;;5075019;28;20082;-59
2023/03/18 12:13:43;;;;;;;13.75;10.13;;;16.80;99.90;;;;;;5075754;28;20105;-59
2023/03/18 12:16:39;;;;;;;13.38;9.57;;;16.30;99.90;;;;;;5076045;28;20089;-59
2023/03/18 12:19:29;;;;;;;16.75;10.23;;;16.40;99.90;;;;;;5070478;28;20067;-59
2023/03/18 12:22:15;;;;;;;14.65;10.45;;;16.50;99.90;;;;;;5075994;28;20035;-59
2023/03/18 12:25:11;;;;;;;13.50;9.18;;;16.40;99.90;;;;;;5075353;28;20040;-55
2023/03/18 12:27:59;;;;;;;11.90;8.15;;;16.20;99.90;;;;;;5074239;28;20127;-60
2023/03/18 12:31:03;;;;;;;13.15;9.60;;;16.00;99.90;;;;;;5074330;28;22220;-60
2023/03/18 12:34:00;;;;;;;12.80;9.52;;;16.10;99.90;;;;;;5074708;28;20056;-60
2023/03/18 12:36:50;;;;;;;14.20;10.50;;;16.60;99.90;;;;;;5073435;28;20043;-59
2023/03/18 12:39:21;;;;;;;13.57;9.77;;;16.70;99.90;;;;;;5073461;28;20043;-60
2023/03/18 12:42:02;;;;;;;11.85;8.88;;;17.00;99.90;;;;;;5074498;28;20642;-60
2023/03/18 12:44:33;;;;;;;11.57;8.32;;;16.80;99.90;;;;;;5074894;28;20032;-60
2023/03/18 12:47:05;;;;;;;11.50;8.65;;;16.60;99.90;;;;;;5076561;28;20086;-61
2023/03/18 12:49:31;;;;;;;;;;;16.30;99.90;;;;;;5075624;28;20071;-60